sensor_id;sensor_type;location;lat;lon;timestamp;temperature;humidity
17938;DHT22;16051;53.024;8.630;2023-01-16T00:00:47;6.10;99.90
17938;DHT22;16051;53.024;8.630;2023-01-16T00:04:49;6.10;99.90
17938;DHT22;16051;53.024;8.630;2023-01-16T00:08:52;6.10;99.90
17938;DHT22;16051;53.024;8.630;2023-01-16T00:12:54;6.20;99.90
17938;DHT22;16051;53.024;8.630;2023-01-16T00:16:57;6.20;99.90
17938;DHT22;16051;53.024;8.630;2023-01-16T00:21:00;6.10;99.90
17938;DHT22;16051;53.024;8.630;2023-01-16T00:25:21;6.10;99.90
17938;DHT22;16051;53.024;8.630;2023-01-16T00:29:23;6.10;99.90
17938;DHT22;16051;53.024;8.630;2023-01-16T00:33:27;6.10;99.90
17938;DHT22;16051;53.024;8.630;2023-01-16T00:37:29;6.10;99.90
17938;DHT22;16051;53.024;8.630;2023-01-16T00:41:31;6.10;99.90
17938;DHT22;16051;53.024;8.630;2023-01-16T00:45:41;6.10;99.90
17938;DHT22;16051;53.024;8.630;2023-01-16T00:49:45;6.10;99.90
17938;DHT22;16051;53.024;8.630;2023-01-16T00:53:47;6.10;99.90
17938;DHT22;16051;53.024;8.630;2023-01-16T00:57:49;6.10;99.90
17938;DHT22;16051;53.024;8.630;2023-01-16T01:01:51;6.10;99.90
17938;DHT22;16051;53.024;8.630;2023-01-16T01:05:54;6.10;99.90
17938;DHT22;16051;53.024;8.630;2023-01-16T01:10:08;6.10;99.90
17938;DHT22;16051;53.024;8.630;2023-01-16T01:14:10;6.10;99.90
17938;DHT22;16051;53.024;8.630;2023-01-16T01:18:13;6.10;99.90
17938;DHT22;16051;53.024;8.630;2023-01-16T01:22:16;6.10;99.90
17938;DHT22;16051;53.024;8.630;2023-01-16T01:26:49;6.10;99.90
17938;DHT22;16051;53.024;8.630;2023-01-16T01:31:11;6.10;99.90
17938;DHT22;16051;53.024;8.630;2023-01-16T01:35:13;6.10;99.90
17938;DHT22;16051;53.024;8.630;2023-01-16T01:39:19;6.10;99.90
17938;DHT22;16051;53.024;8.630;2023-01-16T01:43:21;6.10;99.90
17938;DHT22;16051;53.024;8.630;2023-01-16T01:47:43;6.00;99.90
17938;DHT22;16051;53.024;8.630;2023-01-16T01:51:50;6.00;99.90
17938;DHT22;16051;53.024;8.630;2023-01-16T01:55:56;6.00;99.90
17938;DHT22;16051;53.024;8.630;2023-01-16T02:00:05;6.00;99.90
17938;DHT22;16051;53.024;8.630;2023-01-16T02:04:18;5.90;99.90
17938;DHT22;16051;53.024;8.630;2023-01-16T02:08:28;5.90;99.90
17938;DHT22;16051;53.024;8.630;2023-01-16T02:12:35;5.80;99.90
17938;DHT22;16051;53.024;8.630;2023-01-16T02:16:38;5.80;99.90
17938;DHT22;16051;53.024;8.630;2023-01-16T02:21:04;5.80;99.90
17938;DHT22;16051;53.024;8.630;2023-01-16T02:35:50;5.70;99.90
17938;DHT22;16051;53.024;8.630;2023-01-16T02:40:10;5.70;99.90
17938;DHT22;16051;53.024;8.630;2023-01-16T02:44:27;5.70;99.90
17938;DHT22;16051;53.024;8.630;2023-01-16T02:48:47;5.70;99.90
17938;DHT22;16051;53.024;8.630;2023-01-16T02:52:56;5.70;99.90
17938;DHT22;16051;53.024;8.630;2023-01-16T02:57:07;5.70;99.90
17938;DHT22;16051;53.024;8.630;2023-01-16T03:01:16;5.70;99.90
17938;DHT22;16051;53.024;8.630;2023-01-16T03:05:20;5.70;99.90
17938;DHT22;16051;53.024;8.630;2023-01-16T03:09:32;5.70;99.90
17938;DHT22;16051;53.024;8.630;2023-01-16T03:13:55;5.60;99.90
17938;DHT22;16051;53.024;8.630;2023-01-16T03:18:10;5.60;99.90
17938;DHT22;16051;53.024;8.630;2023-01-16T03:22:27;5.50;99.90
17938;DHT22;16051;53.024;8.630;2023-01-16T03:26:43;5.50;99.90
17938;DHT22;16051;53.024;8.630;2023-01-16T03:30:50;5.40;99.90
17938;DHT22;16051;53.024;8.630;2023-01-16T03:35:00;5.30;99.90
17938;DHT22;16051;53.024;8.630;2023-01-16T03:39:07;5.30;99.90
17938;DHT22;16051;53.024;8.630;2023-01-16T03:43:15;5.20;99.90
17938;DHT22;16051;53.024;8.630;2023-01-16T03:47:31;5.20;99.90
17938;DHT22;16051;53.024;8.630;2023-01-16T03:51:43;5.10;99.90
17938;DHT22;16051;53.024;8.630;2023-01-16T03:55:54;5.10;99.90
17938;DHT22;16051;53.024;8.630;2023-01-16T04:00:03;5.10;99.90
17938;DHT22;16051;53.024;8.630;2023-01-16T04:04:09;5.10;99.90
17938;DHT22;16051;53.024;8.630;2023-01-16T04:08:19;5.20;99.90
17938;DHT22;16051;53.024;8.630;2023-01-16T04:12:30;5.20;99.90
17938;DHT22;16051;53.024;8.630;2023-01-16T04:16:36;5.20;99.90
17938;DHT22;16051;53.024;8.630;2023-01-16T04:20:43;5.30;99.90
17938;DHT22;16051;53.024;8.630;2023-01-16T04:24:48;5.30;99.90
17938;DHT22;16051;53.024;8.630;2023-01-16T04:29:17;5.30;99.90
17938;DHT22;16051;53.024;8.630;2023-01-16T04:33:19;5.30;99.90
17938;DHT22;16051;53.024;8.630;2023-01-16T04:37:38;5.30;99.90
17938;DHT22;16051;53.024;8.630;2023-01-16T04:41:40;5.40;99.90
17938;DHT22;16051;53.024;8.630;2023-01-16T04:45:43;5.40;99.90
17938;DHT22;16051;53.024;8.630;2023-01-16T04:49:47;5.40;99.90
17938;DHT22;16051;53.024;8.630;2023-01-16T04:53:50;5.40;99.90
17938;DHT22;16051;53.024;8.630;2023-01-16T04:57:52;5.40;99.90
17938;DHT22;16051;53.024;8.630;2023-01-16T05:01:56;5.40;99.90
17938;DHT22;16051;53.024;8.630;2023-01-16T05:05:58;5.50;99.90
17938;DHT22;16051;53.024;8.630;2023-01-16T05:10:01;5.50;99.90
17938;DHT22;16051;53.024;8.630;2023-01-16T05:14:03;5.50;99.90
17938;DHT22;16051;53.024;8.630;2023-01-16T05:18:09;5.50;99.90
17938;DHT22;16051;53.024;8.630;2023-01-16T05:22:12;5.50;99.90
17938;DHT22;16051;53.024;8.630;2023-01-16T05:26:14;5.50;99.90
17938;DHT22;16051;53.024;8.630;2023-01-16T05:30:16;5.50;99.90
17938;DHT22;16051;53.024;8.630;2023-01-16T05:34:22;5.50;99.90
17938;DHT22;16051;53.024;8.630;2023-01-16T05:38:24;5.50;99.90
17938;DHT22;16051;53.024;8.630;2023-01-16T05:42:26;5.50;99.90
17938;DHT22;16051;53.024;8.630;2023-01-16T05:46:28;5.50;99.90
17938;DHT22;16051;53.024;8.630;2023-01-16T05:50:40;5.60;99.90
17938;DHT22;16051;53.024;8.630;2023-01-16T05:54:42;5.60;99.90
17938;DHT22;16051;53.024;8.630;2023-01-16T05:58:44;5.60;99.90
17938;DHT22;16051;53.024;8.630;2023-01-16T06:02:46;5.50;99.90
17938;DHT22;16051;53.024;8.630;2023-01-16T06:06:50;5.60;99.90
17938;DHT22;16051;53.024;8.630;2023-01-16T06:10:52;5.50;99.90
17938;DHT22;16051;53.024;8.630;2023-01-16T06:14:54;5.50;99.90
17938;DHT22;16051;53.024;8.630;2023-01-16T06:18:56;5.60;99.90
17938;DHT22;16051;53.024;8.630;2023-01-16T06:23:01;5.50;99.90
17938;DHT22;16051;53.024;8.630;2023-01-16T06:27:11;5.50;99.90
17938;DHT22;16051;53.024;8.630;2023-01-16T06:31:13;5.50;99.90
17938;DHT22;16051;53.024;8.630;2023-01-16T06:35:16;5.40;99.90
17938;DHT22;16051;53.024;8.630;2023-01-16T06:39:19;5.30;99.90
17938;DHT22;16051;53.024;8.630;2023-01-16T06:43:22;5.20;99.90
17938;DHT22;16051;53.024;8.630;2023-01-16T06:47:25;5.10;99.90
17938;DHT22;16051;53.024;8.630;2023-01-16T06:51:27;5.00;99.90
17938;DHT22;16051;53.024;8.630;2023-01-16T06:55:33;4.90;99.90
17938;DHT22;16051;53.024;8.630;2023-01-16T06:59:35;5.30;99.90
17938;DHT22;16051;53.024;8.630;2023-01-16T07:03:38;5.80;99.90
17938;DHT22;16051;53.024;8.630;2023-01-16T07:08:14;5.60;99.90
17938;DHT22;16051;53.024;8.630;2023-01-16T07:12:18;5.20;99.90
17938;DHT22;16051;53.024;8.630;2023-01-16T07:16:20;5.00;99.90
17938;DHT22;16051;53.024;8.630;2023-01-16T07:20:39;4.90;99.90
17938;DHT22;16051;53.024;8.630;2023-01-16T07:25:07;4.90;99.90
17938;DHT22;16051;53.024;8.630;2023-01-16T07:29:47;4.90;99.90
17938;DHT22;16051;53.024;8.630;2023-01-16T07:33:50;4.90;99.90
17938;DHT22;16051;53.024;8.630;2023-01-16T07:37:52;4.90;99.90
17938;DHT22;16051;53.024;8.630;2023-01-16T07:42:02;5.00;99.90
17938;DHT22;16051;53.024;8.630;2023-01-16T07:46:06;5.10;99.90
17938;DHT22;16051;53.024;8.630;2023-01-16T07:50:09;5.10;99.90
17938;DHT22;16051;53.024;8.630;2023-01-16T07:54:12;5.10;99.90
17938;DHT22;16051;53.024;8.630;2023-01-16T07:58:27;5.10;99.90
17938;DHT22;16051;53.024;8.630;2023-01-16T08:02:31;5.10;99.90
17938;DHT22;16051;53.024;8.630;2023-01-16T08:06:34;5.10;99.90
17938;DHT22;16051;53.024;8.630;2023-01-16T08:10:36;5.10;99.90
17938;DHT22;16051;53.024;8.630;2023-01-16T08:14:38;5.00;99.90
17938;DHT22;16051;53.024;8.630;2023-01-16T08:18:42;5.00;99.90
17938;DHT22;16051;53.024;8.630;2023-01-16T08:22:44;5.00;99.90
17938;DHT22;16051;53.024;8.630;2023-01-16T08:26:48;5.00;99.90
17938;DHT22;16051;53.024;8.630;2023-01-16T08:31:13;5.10;99.90
17938;DHT22;16051;53.024;8.630;2023-01-16T08:35:17;5.10;99.90
17938;DHT22;16051;53.024;8.630;2023-01-16T08:39:19;5.10;99.90
17938;DHT22;16051;53.024;8.630;2023-01-16T08:43:21;5.10;99.90
17938;DHT22;16051;53.024;8.630;2023-01-16T08:47:41;5.20;99.90
17938;DHT22;16051;53.024;8.630;2023-01-16T08:52:02;5.20;99.90
17938;DHT22;16051;53.024;8.630;2023-01-16T08:56:06;5.30;99.90
17938;DHT22;16051;53.024;8.630;2023-01-16T09:00:18;5.40;99.90
17938;DHT22;16051;53.024;8.630;2023-01-16T09:04:21;5.40;99.90
17938;DHT22;16051;53.024;8.630;2023-01-16T09:08:24;5.50;99.90
17938;DHT22;16051;53.024;8.630;2023-01-16T09:12:26;5.60;99.90
17938;DHT22;16051;53.024;8.630;2023-01-16T09:16:46;5.70;99.90
17938;DHT22;16051;53.024;8.630;2023-01-16T09:20:50;5.70;99.90
17938;DHT22;16051;53.024;8.630;2023-01-16T09:25:28;5.80;99.90
17938;DHT22;16051;53.024;8.630;2023-01-16T09:29:31;5.80;99.90
17938;DHT22;16051;53.024;8.630;2023-01-16T09:33:33;5.80;99.90
17938;DHT22;16051;53.024;8.630;2023-01-16T09:37:35;5.90;99.90
17938;DHT22;16051;53.024;8.630;2023-01-16T09:41:49;6.00;99.90
17938;DHT22;16051;53.024;8.630;2023-01-16T09:46:19;6.60;99.90
17938;DHT22;16051;53.024;8.630;2023-01-16T09:50:30;6.30;99.90
17938;DHT22;16051;53.024;8.630;2023-01-16T09:54:49;6.20;99.90
17938;DHT22;16051;53.024;8.630;2023-01-16T09:59:22;6.10;99.90
17938;DHT22;16051;53.024;8.630;2023-01-16T10:03:29;6.10;99.90
17938;DHT22;16051;53.024;8.630;2023-01-16T10:07:47;6.10;99.90
17938;DHT22;16051;53.024;8.630;2023-01-16T10:11:57;6.10;99.90
17938;DHT22;16051;53.024;8.630;2023-01-16T10:16:12;6.20;99.90
17938;DHT22;16051;53.024;8.630;2023-01-16T10:20:44;6.20;99.90
17938;DHT22;16051;53.024;8.630;2023-01-16T10:25:09;6.30;99.90
17938;DHT22;16051;53.024;8.630;2023-01-16T10:29:22;7.00;99.90
17938;DHT22;16051;53.024;8.630;2023-01-16T10:34:04;6.60;99.90
17938;DHT22;16051;53.024;8.630;2023-01-16T10:38:21;6.60;99.90
17938;DHT22;16051;53.024;8.630;2023-01-16T10:42:33;6.70;99.90
17938;DHT22;16051;53.024;8.630;2023-01-16T10:46:54;6.70;99.90
17938;DHT22;16051;53.024;8.630;2023-01-16T10:51:16;6.70;99.90
17938;DHT22;16051;53.024;8.630;2023-01-16T10:55:18;6.80;99.90
17938;DHT22;16051;53.024;8.630;2023-01-16T10:59:23;6.70;99.90
17938;DHT22;16051;53.024;8.630;2023-01-16T11:03:32;6.70;99.90
17938;DHT22;16051;53.024;8.630;2023-01-16T11:07:38;6.70;99.90
17938;DHT22;16051;53.024;8.630;2023-01-16T11:11:54;6.70;99.90
17938;DHT22;16051;53.024;8.630;2023-01-16T11:16:21;6.60;99.90
17938;DHT22;16051;53.024;8.630;2023-01-16T11:20:45;6.60;99.90
17938;DHT22;16051;53.024;8.630;2023-01-16T11:24:53;6.60;99.90
17938;DHT22;16051;53.024;8.630;2023-01-16T11:29:00;6.60;99.90
17938;DHT22;16051;53.024;8.630;2023-01-16T11:33:03;6.60;99.90
17938;DHT22;16051;53.024;8.630;2023-01-16T11:37:11;6.60;99.90
17938;DHT22;16051;53.024;8.630;2023-01-16T11:41:27;6.50;99.90
17938;DHT22;16051;53.024;8.630;2023-01-16T11:45:30;6.60;99.90
17938;DHT22;16051;53.024;8.630;2023-01-16T11:49:53;6.60;99.90
17938;DHT22;16051;53.024;8.630;2023-01-16T11:54:13;6.70;99.90
17938;DHT22;16051;53.024;8.630;2023-01-16T11:58:35;6.70;99.90
17938;DHT22;16051;53.024;8.630;2023-01-16T12:07:45;6.70;99.90
17938;DHT22;16051;53.024;8.630;2023-01-16T12:12:21;6.70;99.90
17938;DHT22;16051;53.024;8.630;2023-01-16T12:17:09;6.70;99.90
17938;DHT22;16051;53.024;8.630;2023-01-16T12:21:31;6.70;99.90
17938;DHT22;16051;53.024;8.630;2023-01-16T12:26:04;6.80;99.90
17938;DHT22;16051;53.024;8.630;2023-01-16T12:30:22;6.70;99.90
17938;DHT22;16051;53.024;8.630;2023-01-16T12:34:57;6.80;99.90
17938;DHT22;16051;53.024;8.630;2023-01-16T12:39:31;6.80;99.90
17938;DHT22;16051;53.024;8.630;2023-01-16T12:43:47;6.80;99.90
17938;DHT22;16051;53.024;8.630;2023-01-16T12:48:08;6.80;99.90
17938;DHT22;16051;53.024;8.630;2023-01-16T12:52:42;6.80;99.90
17938;DHT22;16051;53.024;8.630;2023-01-16T12:57:04;7.00;99.90
17938;DHT22;16051;53.024;8.630;2023-01-16T13:01:17;7.10;99.90
17938;DHT22;16051;53.024;8.630;2023-01-16T13:05:25;7.20;99.90
17938;DHT22;16051;53.024;8.630;2023-01-16T13:09:36;7.20;99.90
17938;DHT22;16051;53.024;8.630;2023-01-16T13:13:49;7.30;99.90
17938;DHT22;16051;53.024;8.630;2023-01-16T13:17:56;7.10;99.90
17938;DHT22;16051;53.024;8.630;2023-01-16T13:22:06;7.10;99.90
17938;DHT22;16051;53.024;8.630;2023-01-16T13:26:24;7.10;99.90
17938;DHT22;16051;53.024;8.630;2023-01-16T13:30:28;7.00;99.90
17938;DHT22;16051;53.024;8.630;2023-01-16T13:34:32;6.90;99.90
17938;DHT22;16051;53.024;8.630;2023-01-16T13:38:50;6.90;99.90
17938;DHT22;16051;53.024;8.630;2023-01-16T13:43:06;6.90;99.90
17938;DHT22;16051;53.024;8.630;2023-01-16T13:47:31;6.90;99.90
17938;DHT22;16051;53.024;8.630;2023-01-16T13:51:41;7.00;99.90
17938;DHT22;16051;53.024;8.630;2023-01-16T13:55:47;6.80;99.90
17938;DHT22;16051;53.024;8.630;2023-01-16T13:59:52;6.70;99.90
17938;DHT22;16051;53.024;8.630;2023-01-16T14:04:25;6.60;99.90
17938;DHT22;16051;53.024;8.630;2023-01-16T14:08:50;6.70;99.90
17938;DHT22;16051;53.024;8.630;2023-01-16T14:13:21;6.60;99.90
17938;DHT22;16051;53.024;8.630;2023-01-16T14:17:48;6.70;99.90
17938;DHT22;16051;53.024;8.630;2023-01-16T14:22:03;6.70;99.90
17938;DHT22;16051;53.024;8.630;2023-01-16T14:26:23;6.70;99.90
17938;DHT22;16051;53.024;8.630;2023-01-16T14:30:33;6.70;99.90
17938;DHT22;16051;53.024;8.630;2023-01-16T14:34:39;6.70;99.90
17938;DHT22;16051;53.024;8.630;2023-01-16T14:38:52;6.70;99.90
17938;DHT22;16051;53.024;8.630;2023-01-16T14:42:55;6.70;99.90
17938;DHT22;16051;53.024;8.630;2023-01-16T14:47:25;6.60;99.90
17938;DHT22;16051;53.024;8.630;2023-01-16T14:51:59;6.60;99.90
17938;DHT22;16051;53.024;8.630;2023-01-16T14:56:25;6.60;99.90
17938;DHT22;16051;53.024;8.630;2023-01-16T15:00:30;6.60;99.90
17938;DHT22;16051;53.024;8.630;2023-01-16T15:04:39;6.60;99.90
17938;DHT22;16051;53.024;8.630;2023-01-16T15:08:48;6.60;99.90
17938;DHT22;16051;53.024;8.630;2023-01-16T15:12:51;6.50;99.90
17938;DHT22;16051;53.024;8.630;2023-01-16T15:16:57;6.50;99.90
17938;DHT22;16051;53.024;8.630;2023-01-16T15:21:32;6.50;99.90
17938;DHT22;16051;53.024;8.630;2023-01-16T15:26:21;6.50;99.90
17938;DHT22;16051;53.024;8.630;2023-01-16T15:30:34;6.50;99.90
17938;DHT22;16051;53.024;8.630;2023-01-16T15:34:37;6.40;99.90
17938;DHT22;16051;53.024;8.630;2023-01-16T15:38:39;6.40;99.90
17938;DHT22;16051;53.024;8.630;2023-01-16T15:42:47;6.40;99.90
17938;DHT22;16051;53.024;8.630;2023-01-16T15:47:26;6.40;99.90
17938;DHT22;16051;53.024;8.630;2023-01-16T15:51:39;6.30;99.90
17938;DHT22;16051;53.024;8.630;2023-01-16T15:55:44;6.30;99.90
17938;DHT22;16051;53.024;8.630;2023-01-16T15:59:54;6.30;99.90
17938;DHT22;16051;53.024;8.630;2023-01-16T16:03:58;6.30;99.90
17938;DHT22;16051;53.024;8.630;2023-01-16T16:08:04;6.20;99.90
17938;DHT22;16051;53.024;8.630;2023-01-16T16:12:08;6.20;99.90
17938;DHT22;16051;53.024;8.630;2023-01-16T16:16:18;6.20;99.90
17938;DHT22;16051;53.024;8.630;2023-01-16T16:20:47;6.20;99.90
17938;DHT22;16051;53.024;8.630;2023-01-16T16:24:53;6.20;99.90
17938;DHT22;16051;53.024;8.630;2023-01-16T16:28:55;6.20;99.90
17938;DHT22;16051;53.024;8.630;2023-01-16T16:33:01;6.20;99.90
17938;DHT22;16051;53.024;8.630;2023-01-16T16:37:04;6.10;99.90
17938;DHT22;16051;53.024;8.630;2023-01-16T16:50:34;6.10;99.90
17938;DHT22;16051;53.024;8.630;2023-01-16T16:54:37;6.10;99.90
17938;DHT22;16051;53.024;8.630;2023-01-16T16:58:42;6.10;99.90
17938;DHT22;16051;53.024;8.630;2023-01-16T17:02:48;6.10;99.90
17938;DHT22;16051;53.024;8.630;2023-01-16T17:06:52;6.10;99.90
17938;DHT22;16051;53.024;8.630;2023-01-16T17:10:55;6.10;99.90
17938;DHT22;16051;53.024;8.630;2023-01-16T17:14:58;6.10;99.90
17938;DHT22;16051;53.024;8.630;2023-01-16T17:19:03;6.10;99.90
17938;DHT22;16051;53.024;8.630;2023-01-16T17:23:10;6.00;99.90
17938;DHT22;16051;53.024;8.630;2023-01-16T17:27:21;6.10;99.90
17938;DHT22;16051;53.024;8.630;2023-01-16T17:31:23;6.10;99.90
17938;DHT22;16051;53.024;8.630;2023-01-16T17:35:25;6.00;99.90
17938;DHT22;16051;53.024;8.630;2023-01-16T17:39:29;6.00;99.90
17938;DHT22;16051;53.024;8.630;2023-01-16T17:43:32;6.00;99.90
17938;DHT22;16051;53.024;8.630;2023-01-16T17:52:46;6.00;99.90
17938;DHT22;16051;53.024;8.630;2023-01-16T17:57:12;6.00;99.90
17938;DHT22;16051;53.024;8.630;2023-01-16T18:01:28;6.00;99.90
17938;DHT22;16051;53.024;8.630;2023-01-16T18:05:33;5.90;99.90
17938;DHT22;16051;53.024;8.630;2023-01-16T18:09:35;5.90;99.90
17938;DHT22;16051;53.024;8.630;2023-01-16T18:13:56;5.90;99.90
17938;DHT22;16051;53.024;8.630;2023-01-16T18:18:27;5.90;99.90
17938;DHT22;16051;53.024;8.630;2023-01-16T18:22:31;5.90;99.90
17938;DHT22;16051;53.024;8.630;2023-01-16T18:26:43;5.90;99.90
17938;DHT22;16051;53.024;8.630;2023-01-16T18:30:48;5.80;99.90
17938;DHT22;16051;53.024;8.630;2023-01-16T18:34:51;5.90;99.90
17938;DHT22;16051;53.024;8.630;2023-01-16T18:38:55;5.80;99.90
17938;DHT22;16051;53.024;8.630;2023-01-16T18:43:15;5.80;99.90
17938;DHT22;16051;53.024;8.630;2023-01-16T18:47:40;5.80;99.90
17938;DHT22;16051;53.024;8.630;2023-01-16T18:52:00;5.80;99.90
17938;DHT22;16051;53.024;8.630;2023-01-16T18:56:20;5.80;99.90
17938;DHT22;16051;53.024;8.630;2023-01-16T19:00:42;5.80;99.90
17938;DHT22;16051;53.024;8.630;2023-01-16T19:05:16;5.80;99.90
17938;DHT22;16051;53.024;8.630;2023-01-16T19:09:18;5.80;99.90
17938;DHT22;16051;53.024;8.630;2023-01-16T19:13:21;5.80;99.90
17938;DHT22;16051;53.024;8.630;2023-01-16T19:17:37;5.80;99.90
17938;DHT22;16051;53.024;8.630;2023-01-16T19:21:41;5.80;99.90
17938;DHT22;16051;53.024;8.630;2023-01-16T19:25:44;5.80;99.90
17938;DHT22;16051;53.024;8.630;2023-01-16T19:29:46;5.80;99.90
17938;DHT22;16051;53.024;8.630;2023-01-16T19:38:44;5.70;99.90
17938;DHT22;16051;53.024;8.630;2023-01-16T19:42:56;5.70;99.90
17938;DHT22;16051;53.024;8.630;2023-01-16T19:47:18;5.70;99.90
17938;DHT22;16051;53.024;8.630;2023-01-16T19:51:20;5.60;99.90
17938;DHT22;16051;53.024;8.630;2023-01-16T19:55:24;5.60;99.90
17938;DHT22;16051;53.024;8.630;2023-01-16T19:59:32;5.60;99.90
17938;DHT22;16051;53.024;8.630;2023-01-16T20:03:47;5.60;99.90
17938;DHT22;16051;53.024;8.630;2023-01-16T20:07:49;5.60;99.90
17938;DHT22;16051;53.024;8.630;2023-01-16T20:11:56;5.60;99.90
17938;DHT22;16051;53.024;8.630;2023-01-16T20:16:15;5.60;99.90
17938;DHT22;16051;53.024;8.630;2023-01-16T20:20:18;5.60;99.90
17938;DHT22;16051;53.024;8.630;2023-01-16T20:24:21;5.60;99.90
17938;DHT22;16051;53.024;8.630;2023-01-16T20:28:25;5.50;99.90
17938;DHT22;16051;53.024;8.630;2023-01-16T20:32:27;5.50;99.90
17938;DHT22;16051;53.024;8.630;2023-01-16T20:36:29;5.50;99.90
17938;DHT22;16051;53.024;8.630;2023-01-16T20:40:31;5.50;99.90
17938;DHT22;16051;53.024;8.630;2023-01-16T20:44:50;5.50;99.90
17938;DHT22;16051;53.024;8.630;2023-01-16T20:49:19;5.50;99.90
17938;DHT22;16051;53.024;8.630;2023-01-16T20:53:22;5.50;99.90
17938;DHT22;16051;53.024;8.630;2023-01-16T20:57:24;5.50;99.90
17938;DHT22;16051;53.024;8.630;2023-01-16T21:01:28;5.40;99.90
17938;DHT22;16051;53.024;8.630;2023-01-16T21:05:31;5.50;99.90
17938;DHT22;16051;53.024;8.630;2023-01-16T21:09:34;5.40;99.90
17938;DHT22;16051;53.024;8.630;2023-01-16T21:13:36;5.40;99.90
17938;DHT22;16051;53.024;8.630;2023-01-16T21:17:57;5.50;99.90
17938;DHT22;16051;53.024;8.630;2023-01-16T21:22:18;5.40;99.90
17938;DHT22;16051;53.024;8.630;2023-01-16T21:26:23;5.40;99.90
17938;DHT22;16051;53.024;8.630;2023-01-16T21:30:25;5.40;99.90
17938;DHT22;16051;53.024;8.630;2023-01-16T21:34:37;5.40;99.90
17938;DHT22;16051;53.024;8.630;2023-01-16T21:38:41;5.40;99.90
17938;DHT22;16051;53.024;8.630;2023-01-16T21:42:43;5.40;99.90
17938;DHT22;16051;53.024;8.630;2023-01-16T21:47:03;5.40;99.90
17938;DHT22;16051;53.024;8.630;2023-01-16T21:51:07;5.40;99.90
17938;DHT22;16051;53.024;8.630;2023-01-16T21:55:10;5.40;99.90
17938;DHT22;16051;53.024;8.630;2023-01-16T21:59:12;5.40;99.90
17938;DHT22;16051;53.024;8.630;2023-01-16T22:03:14;5.50;99.90
17938;DHT22;16051;53.024;8.630;2023-01-16T22:11:46;5.40;99.90
17938;DHT22;16051;53.024;8.630;2023-01-16T22:16:12;5.40;99.90
17938;DHT22;16051;53.024;8.630;2023-01-16T22:20:34;5.40;99.90
17938;DHT22;16051;53.024;8.630;2023-01-16T22:24:43;5.40;99.90
17938;DHT22;16051;53.024;8.630;2023-01-16T22:28:49;5.40;99.90
17938;DHT22;16051;53.024;8.630;2023-01-16T22:32:52;5.40;99.90
17938;DHT22;16051;53.024;8.630;2023-01-16T22:36:54;5.40;99.90
17938;DHT22;16051;53.024;8.630;2023-01-16T22:41:01;5.40;99.90
17938;DHT22;16051;53.024;8.630;2023-01-16T22:45:03;5.40;99.90
17938;DHT22;16051;53.024;8.630;2023-01-16T22:49:24;5.40;99.90
17938;DHT22;16051;53.024;8.630;2023-01-16T22:53:26;5.40;99.90
17938;DHT22;16051;53.024;8.630;2023-01-16T22:57:38;5.40;99.90
17938;DHT22;16051;53.024;8.630;2023-01-16T23:01:42;5.50;99.90
17938;DHT22;16051;53.024;8.630;2023-01-16T23:05:44;5.50;99.90
17938;DHT22;16051;53.024;8.630;2023-01-16T23:09:46;5.40;99.90
17938;DHT22;16051;53.024;8.630;2023-01-16T23:14:08;5.40;99.90
17938;DHT22;16051;53.024;8.630;2023-01-16T23:18:11;5.40;99.90
17938;DHT22;16051;53.024;8.630;2023-01-16T23:22:13;5.50;99.90
17938;DHT22;16051;53.024;8.630;2023-01-16T23:26:44;5.40;99.90
17938;DHT22;16051;53.024;8.630;2023-01-16T23:30:47;5.40;99.90
17938;DHT22;16051;53.024;8.630;2023-01-16T23:34:50;5.40;99.90
17938;DHT22;16051;53.024;8.630;2023-01-16T23:38:53;5.40;99.90
17938;DHT22;16051;53.024;8.630;2023-01-16T23:42:56;5.50;99.90
17938;DHT22;16051;53.024;8.630;2023-01-16T23:47:18;5.40;99.90
17938;DHT22;16051;53.024;8.630;2023-01-16T23:51:21;5.40;99.90
17938;DHT22;16051;53.024;8.630;2023-01-16T23:55:23;5.50;99.90
17938;DHT22;16051;53.024;8.630;2023-01-16T23:59:59;5.40;99.90
